createdAt,value
2022-08-28T00:00:25.438Z,34.70
2022-08-28T00:05:45.468Z,34.60
2022-08-28T00:11:05.804Z,34.60
2022-08-28T00:16:26.516Z,34.60
2022-08-28T00:21:46.720Z,34.40
2022-08-28T00:27:06.826Z,34.50
2022-08-28T00:32:27.009Z,34.60
2022-08-28T00:37:48.152Z,34.60
2022-08-28T00:43:08.323Z,34.50
2022-08-28T00:48:28.406Z,34.40
2022-08-28T00:53:48.573Z,34.50
2022-08-28T00:59:08.712Z,34.50
2022-08-28T01:04:28.913Z,34.50
2022-08-28T01:09:48.980Z,34.40
2022-08-28T01:15:09.138Z,35.00
2022-08-28T01:20:29.299Z,34.30
2022-08-28T01:25:49.524Z,34.30
2022-08-28T01:31:09.600Z,34.40
2022-08-28T01:36:29.684Z,34.40
2022-08-28T01:41:49.798Z,34.40
2022-08-28T01:47:09.919Z,34.40
2022-08-28T01:52:30.102Z,34.40
2022-08-28T01:57:50.298Z,34.40
2022-08-28T02:03:10.347Z,34.40
2022-08-28T02:08:30.511Z,34.50
2022-08-28T02:13:50.962Z,34.50
2022-08-28T02:19:14.201Z,34.40
2022-08-28T02:24:34.334Z,34.20
2022-08-28T02:29:57.135Z,34.30
2022-08-28T02:35:17.320Z,34.30
2022-08-28T02:40:37.620Z,34.30
2022-08-28T02:45:57.753Z,34.30
2022-08-28T02:51:17.692Z,34.30
2022-08-28T02:56:37.856Z,34.30
2022-08-28T03:01:58.010Z,34.30
2022-08-28T03:07:18.119Z,34.30
2022-08-28T03:12:38.238Z,34.30
2022-08-28T03:17:58.319Z,34.20
2022-08-28T03:23:18.443Z,34.30
2022-08-28T03:28:38.481Z,34.30
2022-08-28T03:33:58.714Z,34.30
2022-08-28T03:39:18.744Z,34.30
2022-08-28T03:44:38.952Z,34.20
2022-08-28T03:49:58.982Z,34.20
2022-08-28T03:55:19.245Z,34.30
2022-08-28T04:00:39.353Z,34.20
2022-08-28T04:05:59.554Z,34.30
2022-08-28T04:11:19.666Z,34.20
2022-08-28T04:16:40.115Z,34.20
2022-08-28T04:22:00.159Z,34.20
2022-08-28T04:27:20.322Z,34.20
2022-08-28T04:32:40.372Z,34.30
2022-08-28T04:38:02.530Z,34.20
2022-08-28T04:43:25.216Z,34.20
2022-08-28T04:48:45.394Z,34.30
2022-08-28T04:54:05.639Z,34.30
2022-08-28T04:59:25.791Z,34.30
2022-08-28T05:04:45.984Z,34.30
2022-08-28T05:10:06.163Z,34.30
2022-08-28T05:15:26.131Z,34.30
2022-08-28T05:20:46.410Z,34.30
2022-08-28T05:26:06.536Z,34.30
2022-08-28T05:31:26.760Z,34.30
2022-08-28T05:36:46.901Z,34.30
2022-08-28T05:42:07.129Z,34.20
2022-08-28T05:47:27.792Z,34.30
2022-08-28T05:52:47.910Z,34.20
2022-08-28T05:58:07.873Z,34.10
2022-08-28T06:03:28.027Z,33.90
2022-08-28T06:08:58.048Z,33.80
2022-08-28T06:14:19.272Z,34.00
2022-08-28T06:19:41.685Z,33.80
2022-08-28T06:25:04.511Z,33.90
2022-08-28T06:30:26.180Z,34.00
2022-08-28T06:35:46.418Z,34.00
2022-08-28T06:41:06.539Z,33.90
2022-08-28T06:46:26.834Z,33.90
2022-08-28T06:51:47.146Z,34.00
2022-08-28T06:57:07.610Z,33.90
2022-08-28T07:02:28.342Z,33.90
2022-08-28T07:07:49.042Z,33.90
2022-08-28T07:13:09.020Z,33.90
2022-08-28T07:18:29.264Z,33.90
2022-08-28T07:23:49.342Z,33.80
2022-08-28T07:29:11.448Z,33.90
2022-08-28T07:34:31.801Z,33.90
2022-08-28T07:39:51.865Z,33.80
2022-08-28T07:45:11.902Z,33.80
2022-08-28T07:50:32.086Z,33.70
2022-08-28T07:55:52.255Z,33.70
2022-08-28T08:01:12.436Z,33.80
2022-08-28T08:06:34.373Z,33.60
2022-08-28T08:11:54.642Z,33.60
2022-08-28T08:17:15.386Z,33.60
2022-08-28T08:22:35.501Z,33.60
2022-08-28T08:27:55.719Z,33.70
2022-08-28T08:33:15.873Z,33.80
2022-08-28T08:38:36.297Z,33.80
2022-08-28T08:43:56.466Z,33.80
2022-08-28T08:49:16.659Z,33.70
2022-08-28T08:54:36.703Z,33.70
2022-08-28T08:59:57.036Z,33.50
2022-08-28T09:05:17.152Z,33.50
2022-08-28T09:10:37.234Z,33.30
2022-08-28T09:15:57.578Z,33.40
2022-08-28T09:21:17.605Z,33.30
2022-08-28T09:26:37.713Z,33.30
2022-08-28T09:31:57.937Z,33.30
2022-08-28T09:37:17.984Z,33.20
2022-08-28T09:42:38.145Z,32.90
2022-08-28T09:47:58.168Z,32.80
2022-08-28T09:53:18.293Z,32.80
2022-08-28T09:58:38.472Z,32.60
2022-08-28T10:03:58.592Z,32.70
2022-08-28T10:09:18.726Z,32.40
2022-08-28T10:14:38.770Z,32.40
2022-08-28T10:19:59.179Z,32.60
2022-08-28T10:25:19.330Z,32.60
2022-08-28T10:30:39.642Z,32.70
2022-08-28T10:35:59.684Z,32.70
2022-08-28T10:41:19.994Z,32.50
2022-08-28T10:46:40.006Z,32.60
2022-08-28T10:52:00.121Z,32.20
2022-08-28T10:57:21.257Z,32.00
2022-08-28T11:02:41.602Z,31.70
2022-08-28T11:08:01.617Z,31.60
2022-08-28T11:13:21.816Z,31.60
2022-08-28T11:18:41.838Z,31.50
2022-08-28T11:24:01.873Z,31.80
2022-08-28T11:29:22.090Z,31.80
2022-08-28T11:34:42.294Z,31.80
2022-08-28T11:40:02.448Z,31.80
2022-08-28T11:45:22.680Z,31.80
2022-08-28T11:50:42.822Z,31.60
2022-08-28T11:56:03.092Z,31.70
2022-08-28T12:01:23.313Z,31.60
2022-08-28T12:06:43.551Z,31.70
2022-08-28T12:12:03.598Z,31.50
2022-08-28T12:17:26.864Z,31.50
2022-08-28T12:22:49.504Z,31.40
2022-08-28T12:28:13.062Z,31.30
2022-08-28T12:33:33.366Z,31.10
2022-08-28T12:38:53.505Z,31.20
2022-08-28T12:44:13.612Z,30.60
2022-08-28T12:49:33.626Z,31.00
2022-08-28T12:54:53.940Z,31.50
2022-08-28T13:00:13.990Z,30.80
2022-08-28T13:05:34.230Z,31.10
2022-08-28T13:10:54.318Z,30.90
2022-08-28T13:16:14.494Z,30.70
2022-08-28T13:21:34.949Z,30.70
2022-08-28T13:26:55.167Z,30.70
2022-08-28T13:32:15.172Z,30.80
2022-08-28T13:37:35.363Z,30.70
2022-08-28T13:42:55.364Z,30.50
2022-08-28T13:48:15.563Z,30.40
2022-08-28T13:53:35.680Z,30.20
2022-08-28T13:58:57.461Z,30.30
2022-08-28T14:04:18.249Z,30.60
2022-08-28T14:09:38.600Z,30.40
2022-08-28T14:14:58.751Z,30.20
2022-08-28T14:20:18.830Z,30.00
2022-08-28T14:25:39.382Z,29.90
2022-08-28T14:30:59.690Z,29.60
2022-08-28T14:36:19.826Z,29.60
2022-08-28T14:41:40.038Z,29.70
2022-08-28T14:47:00.150Z,29.50
2022-08-28T14:52:20.301Z,29.40
2022-08-28T14:57:40.417Z,29.40
2022-08-28T15:03:02.232Z,29.40
2022-08-28T15:08:22.370Z,29.50
2022-08-28T15:13:42.618Z,29.50
2022-08-28T15:19:02.778Z,29.60
2022-08-28T15:24:23.071Z,29.40
2022-08-28T15:29:43.139Z,29.40
2022-08-28T15:35:03.277Z,29.40
2022-08-28T15:40:23.437Z,29.30
2022-08-28T15:45:43.595Z,29.30
2022-08-28T15:51:03.632Z,29.30
2022-08-28T15:56:23.820Z,29.20
2022-08-28T16:01:43.944Z,29.10
2022-08-28T16:07:04.176Z,29.10
2022-08-28T16:12:24.298Z,29.10
2022-08-28T16:17:44.627Z,29.00
2022-08-28T16:23:04.824Z,29.30
2022-08-28T16:28:25.129Z,29.00
2022-08-28T16:33:47.274Z,29.00
2022-08-28T16:39:08.081Z,29.20
2022-08-28T16:44:28.286Z,29.30
2022-08-28T16:49:48.552Z,29.30
2022-08-28T16:55:08.818Z,29.40
2022-08-28T17:00:29.729Z,29.50
2022-08-28T17:05:49.802Z,29.60
2022-08-28T17:11:10.564Z,29.50
2022-08-28T17:16:30.793Z,29.80
2022-08-28T17:21:51.074Z,30.00
2022-08-28T17:27:11.146Z,29.50
2022-08-28T17:32:31.288Z,29.40
2022-08-28T17:37:51.376Z,29.50
2022-08-28T17:43:11.753Z,29.20
2022-08-28T17:48:31.887Z,29.20
2022-08-28T17:53:52.127Z,29.10
2022-08-28T17:59:12.177Z,29.10
2022-08-28T18:04:32.409Z,29.10
2022-08-28T18:09:52.458Z,29.10
2022-08-28T18:15:12.744Z,29.50
2022-08-28T18:20:32.796Z,29.40
2022-08-28T18:25:52.961Z,29.30
2022-08-28T18:31:13.143Z,29.40
2022-08-28T18:36:33.328Z,29.60
2022-08-28T18:41:53.451Z,29.60
2022-08-28T18:47:14.135Z,29.70
2022-08-28T18:52:34.650Z,29.70
2022-08-28T18:57:54.938Z,29.90
2022-08-28T19:03:16.131Z,29.60
2022-08-28T19:08:36.516Z,29.60
2022-08-28T19:13:56.916Z,29.70
2022-08-28T19:19:17.210Z,29.70
2022-08-28T19:24:38.061Z,29.70
2022-08-28T19:29:58.602Z,29.60
2022-08-28T19:35:18.623Z,29.60
2022-08-28T19:40:38.811Z,29.60
2022-08-28T19:45:58.960Z,29.60
2022-08-28T19:51:23.706Z,29.60
2022-08-28T19:56:43.989Z,29.70
2022-08-28T20:02:03.977Z,29.70
2022-08-28T20:07:25.036Z,29.80
2022-08-28T20:12:48.813Z,29.70
2022-08-28T20:18:08.991Z,29.70
2022-08-28T20:23:29.181Z,29.70
2022-08-28T20:28:49.379Z,29.80
2022-08-28T20:34:09.762Z,29.80
2022-08-28T20:39:30.177Z,29.90
2022-08-28T20:44:50.568Z,30.00
2022-08-28T20:50:11.772Z,30.00
2022-08-28T20:55:31.882Z,30.00
2022-08-28T21:00:53.500Z,30.00
2022-08-28T21:06:20.034Z,30.10
2022-08-28T21:11:40.184Z,30.20
2022-08-28T21:17:00.497Z,30.20
2022-08-28T21:22:20.491Z,30.20
2022-08-28T21:27:40.742Z,30.40
2022-08-28T21:33:00.857Z,30.40
2022-08-28T21:38:20.948Z,30.50
2022-08-28T21:43:40.963Z,30.50
2022-08-28T21:49:00.999Z,30.60
2022-08-28T21:54:21.107Z,30.70
2022-08-28T21:59:41.146Z,30.70
2022-08-28T22:05:01.363Z,30.80
2022-08-28T22:10:21.560Z,30.90
2022-08-28T22:15:41.666Z,30.90
2022-08-28T22:21:01.874Z,30.90
2022-08-28T22:26:21.791Z,31.00
2022-08-28T22:31:45.521Z,30.90
2022-08-28T22:37:06.139Z,30.90
2022-08-28T22:42:26.159Z,31.10
2022-08-28T22:47:46.360Z,31.10
2022-08-28T22:53:06.571Z,31.10
2022-08-28T22:58:26.684Z,31.20
2022-08-28T23:03:46.788Z,31.20
2022-08-28T23:09:06.799Z,31.30
2022-08-28T23:14:26.997Z,31.20
2022-08-28T23:19:47.531Z,31.20
2022-08-28T23:25:08.172Z,31.30
2022-08-28T23:30:28.290Z,31.30
2022-08-28T23:35:48.319Z,31.30
2022-08-28T23:41:08.379Z,31.30
2022-08-28T23:46:28.544Z,31.30
2022-08-28T23:51:49.680Z,31.30
2022-08-28T23:57:11.917Z,31.60
